sensor_id;sensor_type;location;lat;lon;timestamp;P1;durP1;ratioP1;P2;durP2;ratioP2
48911;SDS011;34722;52.108;5.044;2023-03-01T00:01:22;48.20;;;22.42;;
48911;SDS011;34722;52.108;5.044;2023-03-01T00:03:51;48.25;;;21.55;;
48911;SDS011;34722;52.108;5.044;2023-03-01T00:06:19;43.22;;;21.63;;
48911;SDS011;34722;52.108;5.044;2023-03-01T00:08:45;43.60;;;20.73;;
48911;SDS011;34722;52.108;5.044;2023-03-01T00:11:12;44.15;;;21.27;;
48911;SDS011;34722;52.108;5.044;2023-03-01T00:13:40;40.33;;;19.98;;
48911;SDS011;34722;52.108;5.044;2023-03-01T00:16:08;43.38;;;21.13;;
48911;SDS011;34722;52.108;5.044;2023-03-01T00:18:42;44.97;;;20.05;;
48911;SDS011;34722;52.108;5.044;2023-03-01T00:21:07;42.92;;;20.67;;
48911;SDS011;34722;52.108;5.044;2023-03-01T00:23:33;42.30;;;21.17;;
48911;SDS011;34722;52.108;5.044;2023-03-01T00:25:59;41.58;;;20.73;;
48911;SDS011;34722;52.108;5.044;2023-03-01T00:28:25;39.92;;;20.45;;
48911;SDS011;34722;52.108;5.044;2023-03-01T00:30:51;42.30;;;21.02;;
48911;SDS011;34722;52.108;5.044;2023-03-01T00:33:17;39.38;;;18.98;;
48911;SDS011;34722;52.108;5.044;2023-03-01T00:35:43;42.05;;;21.17;;
48911;SDS011;34722;52.108;5.044;2023-03-01T00:38:09;36.83;;;18.38;;
48911;SDS011;34722;52.108;5.044;2023-03-01T00:40:35;37.63;;;19.48;;
48911;SDS011;34722;52.108;5.044;2023-03-01T00:43:01;42.50;;;19.73;;
48911;SDS011;34722;52.108;5.044;2023-03-01T00:45:27;38.05;;;20.17;;
48911;SDS011;34722;52.108;5.044;2023-03-01T00:47:53;40.05;;;18.65;;
48911;SDS011;34722;52.108;5.044;2023-03-01T00:50:19;35.67;;;18.00;;
48911;SDS011;34722;52.108;5.044;2023-03-01T00:52:45;41.15;;;19.67;;
48911;SDS011;34722;52.108;5.044;2023-03-01T00:55:11;49.42;;;20.80;;
48911;SDS011;34722;52.108;5.044;2023-03-01T00:57:37;36.85;;;19.38;;
48911;SDS011;34722;52.108;5.044;2023-03-01T01:00:06;38.28;;;19.83;;
48911;SDS011;34722;52.108;5.044;2023-03-01T01:02:33;40.78;;;20.40;;
48911;SDS011;34722;52.108;5.044;2023-03-01T01:04:59;45.08;;;20.48;;
48911;SDS011;34722;52.108;5.044;2023-03-01T01:07:25;43.30;;;19.13;;
48911;SDS011;34722;52.108;5.044;2023-03-01T01:09:51;43.45;;;20.70;;
48911;SDS011;34722;52.108;5.044;2023-03-01T01:12:16;46.33;;;20.67;;
48911;SDS011;34722;52.108;5.044;2023-03-01T01:14:42;42.72;;;20.15;;
48911;SDS011;34722;52.108;5.044;2023-03-01T01:17:08;37.67;;;19.10;;
48911;SDS011;34722;52.108;5.044;2023-03-01T01:19:33;37.15;;;18.83;;
48911;SDS011;34722;52.108;5.044;2023-03-01T01:21:59;42.20;;;20.20;;
48911;SDS011;34722;52.108;5.044;2023-03-01T01:24:24;41.33;;;19.13;;
48911;SDS011;34722;52.108;5.044;2023-03-01T01:26:50;42.75;;;20.15;;
48911;SDS011;34722;52.108;5.044;2023-03-01T01:29:16;40.25;;;19.40;;
48911;SDS011;34722;52.108;5.044;2023-03-01T01:31:42;37.53;;;19.35;;
48911;SDS011;34722;52.108;5.044;2023-03-01T01:34:10;37.58;;;17.98;;
48911;SDS011;34722;52.108;5.044;2023-03-01T01:36:39;38.08;;;19.48;;
48911;SDS011;34722;52.108;5.044;2023-03-01T01:39:04;40.25;;;19.00;;
48911;SDS011;34722;52.108;5.044;2023-03-01T01:41:30;39.22;;;17.98;;
48911;SDS011;34722;52.108;5.044;2023-03-01T01:49:42;40.40;;;19.27;;
48911;SDS011;34722;52.108;5.044;2023-03-01T01:52:16;37.00;;;17.85;;
48911;SDS011;34722;52.108;5.044;2023-03-01T01:54:48;40.50;;;19.77;;
48911;SDS011;34722;52.108;5.044;2023-03-01T01:57:27;42.05;;;19.05;;
48911;SDS011;34722;52.108;5.044;2023-03-01T02:00:05;41.90;;;19.45;;
48911;SDS011;34722;52.108;5.044;2023-03-01T02:02:44;43.60;;;20.83;;
48911;SDS011;34722;52.108;5.044;2023-03-01T02:05:57;43.60;;;19.55;;
48911;SDS011;34722;52.108;5.044;2023-03-01T02:08:01;44.15;;;20.02;;
48911;SDS011;34722;52.108;5.044;2023-03-01T02:10:27;57.42;;;20.88;;
48911;SDS011;34722;52.108;5.044;2023-03-01T02:12:54;40.33;;;18.88;;
48911;SDS011;34722;52.108;5.044;2023-03-01T02:15:21;35.75;;;18.73;;
48911;SDS011;34722;52.108;5.044;2023-03-01T02:17:47;44.35;;;21.17;;
48911;SDS011;34722;52.108;5.044;2023-03-01T02:20:26;43.97;;;21.75;;
48911;SDS011;34722;52.108;5.044;2023-03-01T02:22:55;55.58;;;21.25;;
48911;SDS011;34722;52.108;5.044;2023-03-01T02:25:26;47.28;;;22.05;;
48911;SDS011;34722;52.108;5.044;2023-03-01T02:28:05;53.58;;;23.55;;
48911;SDS011;34722;52.108;5.044;2023-03-01T02:30:34;50.70;;;23.02;;
48911;SDS011;34722;52.108;5.044;2023-03-01T02:33:00;47.78;;;21.42;;
48911;SDS011;34722;52.108;5.044;2023-03-01T02:35:38;45.65;;;22.13;;
48911;SDS011;34722;52.108;5.044;2023-03-01T02:38:06;47.60;;;22.88;;
48911;SDS011;34722;52.108;5.044;2023-03-01T02:40:33;58.65;;;23.73;;
48911;SDS011;34722;52.108;5.044;2023-03-01T02:43:01;52.83;;;23.33;;
48911;SDS011;34722;52.108;5.044;2023-03-01T02:45:29;46.90;;;22.98;;
48911;SDS011;34722;52.108;5.044;2023-03-01T02:47:55;53.92;;;24.00;;
48911;SDS011;34722;52.108;5.044;2023-03-01T02:55:28;46.75;;;22.02;;
48911;SDS011;34722;52.108;5.044;2023-03-01T02:57:54;53.60;;;23.73;;
48911;SDS011;34722;52.108;5.044;2023-03-01T03:00:23;48.72;;;22.55;;
48911;SDS011;34722;52.108;5.044;2023-03-01T03:02:52;51.30;;;22.50;;
48911;SDS011;34722;52.108;5.044;2023-03-01T03:05:20;49.80;;;23.30;;
48911;SDS011;34722;52.108;5.044;2023-03-01T03:07:48;47.42;;;21.73;;
48911;SDS011;34722;52.108;5.044;2023-03-01T03:10:23;48.17;;;21.02;;
48911;SDS011;34722;52.108;5.044;2023-03-01T03:12:52;42.78;;;20.23;;
48911;SDS011;34722;52.108;5.044;2023-03-01T03:15:29;45.38;;;20.98;;
48911;SDS011;34722;52.108;5.044;2023-03-01T03:17:56;45.08;;;21.83;;
48911;SDS011;34722;52.108;5.044;2023-03-01T03:20:24;47.83;;;20.88;;
48911;SDS011;34722;52.108;5.044;2023-03-01T03:22:52;51.28;;;22.63;;
48911;SDS011;34722;52.108;5.044;2023-03-01T03:25:19;45.22;;;21.15;;
48911;SDS011;34722;52.108;5.044;2023-03-01T03:27:47;46.15;;;21.25;;
48911;SDS011;34722;52.108;5.044;2023-03-01T03:30:18;46.75;;;21.73;;
48911;SDS011;34722;52.108;5.044;2023-03-01T03:32:46;52.45;;;22.55;;
48911;SDS011;34722;52.108;5.044;2023-03-01T03:35:28;50.15;;;21.55;;
48911;SDS011;34722;52.108;5.044;2023-03-01T03:37:56;48.15;;;21.30;;
48911;SDS011;34722;52.108;5.044;2023-03-01T03:40:28;45.33;;;20.08;;
48911;SDS011;34722;52.108;5.044;2023-03-01T03:42:55;47.10;;;21.50;;
48911;SDS011;34722;52.108;5.044;2023-03-01T03:45:20;44.35;;;21.13;;
48911;SDS011;34722;52.108;5.044;2023-03-01T03:47:46;47.13;;;21.85;;
48911;SDS011;34722;52.108;5.044;2023-03-01T03:50:14;47.03;;;21.50;;
48911;SDS011;34722;52.108;5.044;2023-03-01T03:52:40;44.80;;;20.55;;
48911;SDS011;34722;52.108;5.044;2023-03-01T03:55:07;46.95;;;21.70;;
48911;SDS011;34722;52.108;5.044;2023-03-01T03:57:34;51.10;;;22.85;;
48911;SDS011;34722;52.108;5.044;2023-03-01T04:00:00;48.80;;;21.58;;
48911;SDS011;34722;52.108;5.044;2023-03-01T04:02:28;45.80;;;21.42;;
48911;SDS011;34722;52.108;5.044;2023-03-01T04:04:54;51.65;;;22.73;;
48911;SDS011;34722;52.108;5.044;2023-03-01T04:07:20;51.08;;;21.02;;
48911;SDS011;34722;52.108;5.044;2023-03-01T04:09:45;46.60;;;20.70;;
48911;SDS011;34722;52.108;5.044;2023-03-01T04:12:11;46.17;;;21.90;;
48911;SDS011;34722;52.108;5.044;2023-03-01T04:14:37;44.70;;;21.48;;
48911;SDS011;34722;52.108;5.044;2023-03-01T04:17:03;47.17;;;21.83;;
48911;SDS011;34722;52.108;5.044;2023-03-01T04:19:30;51.92;;;21.17;;
48911;SDS011;34722;52.108;5.044;2023-03-01T04:22:01;52.33;;;22.67;;
48911;SDS011;34722;52.108;5.044;2023-03-01T04:24:37;49.20;;;22.30;;
48911;SDS011;34722;52.108;5.044;2023-03-01T04:27:03;49.28;;;20.75;;
48911;SDS011;34722;52.108;5.044;2023-03-01T04:29:28;43.65;;;21.13;;
48911;SDS011;34722;52.108;5.044;2023-03-01T04:31:54;49.03;;;22.65;;
48911;SDS011;34722;52.108;5.044;2023-03-01T04:34:20;54.47;;;23.67;;
48911;SDS011;34722;52.108;5.044;2023-03-01T04:36:45;43.28;;;20.67;;
48911;SDS011;34722;52.108;5.044;2023-03-01T04:39:11;52.33;;;22.25;;
48911;SDS011;34722;52.108;5.044;2023-03-01T04:41:38;52.65;;;22.35;;
48911;SDS011;34722;52.108;5.044;2023-03-01T04:44:04;49.00;;;21.08;;
48911;SDS011;34722;52.108;5.044;2023-03-01T04:46:34;51.33;;;21.05;;
48911;SDS011;34722;52.108;5.044;2023-03-01T04:49:01;56.47;;;22.92;;
48911;SDS011;34722;52.108;5.044;2023-03-01T04:51:27;53.65;;;23.25;;
48911;SDS011;34722;52.108;5.044;2023-03-01T04:53:53;47.35;;;22.85;;
48911;SDS011;34722;52.108;5.044;2023-03-01T04:56:19;57.45;;;23.40;;
48911;SDS011;34722;52.108;5.044;2023-03-01T04:58:45;57.47;;;24.13;;
48911;SDS011;34722;52.108;5.044;2023-03-01T05:01:12;52.83;;;23.90;;
48911;SDS011;34722;52.108;5.044;2023-03-01T05:03:42;50.42;;;23.52;;
48911;SDS011;34722;52.108;5.044;2023-03-01T05:06:09;54.88;;;24.08;;
48911;SDS011;34722;52.108;5.044;2023-03-01T05:08:35;58.05;;;24.92;;
48911;SDS011;34722;52.108;5.044;2023-03-01T05:11:06;54.53;;;23.80;;
48911;SDS011;34722;52.108;5.044;2023-03-01T05:13:33;56.22;;;24.67;;
48911;SDS011;34722;52.108;5.044;2023-03-01T05:16:10;57.33;;;24.42;;
48911;SDS011;34722;52.108;5.044;2023-03-01T05:18:39;58.60;;;25.25;;
48911;SDS011;34722;52.108;5.044;2023-03-01T05:21:07;54.15;;;24.70;;
48911;SDS011;34722;52.108;5.044;2023-03-01T05:23:36;51.15;;;22.70;;
48911;SDS011;34722;52.108;5.044;2023-03-01T05:26:03;47.00;;;22.85;;
48911;SDS011;34722;52.108;5.044;2023-03-01T05:28:30;50.42;;;23.88;;
48911;SDS011;34722;52.108;5.044;2023-03-01T05:30:57;51.72;;;23.02;;
48911;SDS011;34722;52.108;5.044;2023-03-01T05:33:23;55.65;;;24.20;;
48911;SDS011;34722;52.108;5.044;2023-03-01T05:35:50;54.72;;;23.55;;
48911;SDS011;34722;52.108;5.044;2023-03-01T05:38:19;51.92;;;23.40;;
48911;SDS011;34722;52.108;5.044;2023-03-01T05:40:46;55.15;;;25.23;;
48911;SDS011;34722;52.108;5.044;2023-03-01T05:43:14;51.47;;;22.38;;
48911;SDS011;34722;52.108;5.044;2023-03-01T05:45:41;51.50;;;23.17;;
48911;SDS011;34722;52.108;5.044;2023-03-01T05:48:07;54.95;;;24.95;;
48911;SDS011;34722;52.108;5.044;2023-03-01T05:50:35;52.08;;;22.92;;
48911;SDS011;34722;52.108;5.044;2023-03-01T05:53:04;59.70;;;26.23;;
48911;SDS011;34722;52.108;5.044;2023-03-01T05:55:33;61.05;;;26.27;;
48911;SDS011;34722;52.108;5.044;2023-03-01T05:58:00;62.40;;;25.13;;
48911;SDS011;34722;52.108;5.044;2023-03-01T06:00:28;61.50;;;25.50;;
48911;SDS011;34722;52.108;5.044;2023-03-01T06:02:55;59.47;;;25.38;;
48911;SDS011;34722;52.108;5.044;2023-03-01T06:05:21;63.17;;;25.70;;
48911;SDS011;34722;52.108;5.044;2023-03-01T06:07:48;58.28;;;25.08;;
48911;SDS011;34722;52.108;5.044;2023-03-01T06:10:15;65.45;;;28.20;;
48911;SDS011;34722;52.108;5.044;2023-03-01T06:12:42;59.63;;;23.58;;
48911;SDS011;34722;52.108;5.044;2023-03-01T06:15:09;61.33;;;26.70;;
48911;SDS011;34722;52.108;5.044;2023-03-01T06:17:37;62.88;;;25.52;;
48911;SDS011;34722;52.108;5.044;2023-03-01T06:20:06;57.53;;;26.90;;
48911;SDS011;34722;52.108;5.044;2023-03-01T06:22:34;68.75;;;27.98;;
48911;SDS011;34722;52.108;5.044;2023-03-01T06:25:00;64.15;;;25.63;;
48911;SDS011;34722;52.108;5.044;2023-03-01T06:27:26;62.75;;;26.95;;
48911;SDS011;34722;52.108;5.044;2023-03-01T06:29:52;59.63;;;27.00;;
48911;SDS011;34722;52.108;5.044;2023-03-01T06:32:17;56.15;;;25.38;;
48911;SDS011;34722;52.108;5.044;2023-03-01T06:34:43;63.00;;;26.73;;
48911;SDS011;34722;52.108;5.044;2023-03-01T06:37:09;62.10;;;26.55;;
48911;SDS011;34722;52.108;5.044;2023-03-01T06:39:35;64.22;;;26.05;;
48911;SDS011;34722;52.108;5.044;2023-03-01T06:42:00;67.65;;;26.38;;
48911;SDS011;34722;52.108;5.044;2023-03-01T06:44:26;65.22;;;25.73;;
48911;SDS011;34722;52.108;5.044;2023-03-01T06:46:53;56.45;;;25.23;;
48911;SDS011;34722;52.108;5.044;2023-03-01T06:49:18;62.92;;;26.75;;
48911;SDS011;34722;52.108;5.044;2023-03-01T06:51:45;68.72;;;26.65;;
48911;SDS011;34722;52.108;5.044;2023-03-01T06:54:11;62.40;;;26.80;;
48911;SDS011;34722;52.108;5.044;2023-03-01T06:56:37;63.58;;;26.02;;
48911;SDS011;34722;52.108;5.044;2023-03-01T06:59:03;65.05;;;28.13;;
48911;SDS011;34722;52.108;5.044;2023-03-01T07:01:29;62.65;;;26.15;;
48911;SDS011;34722;52.108;5.044;2023-03-01T07:03:55;70.30;;;28.40;;
48911;SDS011;34722;52.108;5.044;2023-03-01T07:06:21;64.30;;;27.00;;
48911;SDS011;34722;52.108;5.044;2023-03-01T07:08:47;67.20;;;28.52;;
48911;SDS011;34722;52.108;5.044;2023-03-01T07:11:13;75.43;;;29.52;;
48911;SDS011;34722;52.108;5.044;2023-03-01T07:13:39;67.78;;;29.92;;
48911;SDS011;34722;52.108;5.044;2023-03-01T07:16:05;71.88;;;30.65;;
48911;SDS011;34722;52.108;5.044;2023-03-01T07:18:32;72.15;;;30.40;;
48911;SDS011;34722;52.108;5.044;2023-03-01T07:20:58;70.75;;;30.08;;
48911;SDS011;34722;52.108;5.044;2023-03-01T07:23:28;81.93;;;32.13;;
48911;SDS011;34722;52.108;5.044;2023-03-01T07:25:55;81.82;;;31.65;;
48911;SDS011;34722;52.108;5.044;2023-03-01T07:28:22;764.90;;;93.57;;
48911;SDS011;34722;52.108;5.044;2023-03-01T07:33:36;54.83;;;27.50;;
48911;SDS011;34722;52.108;5.044;2023-03-01T07:39:10;36.78;;;20.52;;
48911;SDS011;34722;52.108;5.044;2023-03-01T07:41:36;43.45;;;19.60;;
48911;SDS011;34722;52.108;5.044;2023-03-01T07:44:02;33.53;;;20.13;;
48911;SDS011;34722;52.108;5.044;2023-03-01T07:46:28;29.63;;;18.58;;
48911;SDS011;34722;52.108;5.044;2023-03-01T07:48:54;29.10;;;20.17;;
48911;SDS011;34722;52.108;5.044;2023-03-01T07:51:20;25.15;;;18.45;;
48911;SDS011;34722;52.108;5.044;2023-03-01T07:53:46;33.00;;;17.45;;
48911;SDS011;34722;52.108;5.044;2023-03-01T07:56:13;23.88;;;17.83;;
48911;SDS011;34722;52.108;5.044;2023-03-01T07:58:42;22.05;;;17.30;;
48911;SDS011;34722;52.108;5.044;2023-03-01T08:01:14;24.48;;;18.70;;
48911;SDS011;34722;52.108;5.044;2023-03-01T08:03:42;23.42;;;18.33;;
48911;SDS011;34722;52.108;5.044;2023-03-01T08:06:09;28.38;;;20.02;;
48911;SDS011;34722;52.108;5.044;2023-03-01T10:53:42;14.45;;;8.63;;
48911;SDS011;34722;52.108;5.044;2023-03-01T10:56:14;12.00;;;8.18;;
48911;SDS011;34722;52.108;5.044;2023-03-01T10:59:03;11.65;;;7.95;;
48911;SDS011;34722;52.108;5.044;2023-03-01T11:01:30;10.70;;;8.15;;
48911;SDS011;34722;52.108;5.044;2023-03-01T11:06:33;9.88;;;7.90;;
48911;SDS011;34722;52.108;5.044;2023-03-01T11:09:33;14.02;;;8.02;;
48911;SDS011;34722;52.108;5.044;2023-03-01T11:11:57;10.52;;;8.00;;
48911;SDS011;34722;52.108;5.044;2023-03-01T11:14:27;13.63;;;8.77;;
48911;SDS011;34722;52.108;5.044;2023-03-01T11:17:14;8.55;;;7.65;;
48911;SDS011;34722;52.108;5.044;2023-03-01T11:22:30;9.43;;;7.50;;
48911;SDS011;34722;52.108;5.044;2023-03-01T11:24:59;9.82;;;8.02;;
48911;SDS011;34722;52.108;5.044;2023-03-01T11:27:32;9.25;;;7.47;;
48911;SDS011;34722;52.108;5.044;2023-03-01T11:35:33;7.97;;;6.95;;
48911;SDS011;34722;52.108;5.044;2023-03-01T11:40:43;12.88;;;7.68;;
48911;SDS011;34722;52.108;5.044;2023-03-01T11:46:31;10.50;;;7.90;;
48911;SDS011;34722;52.108;5.044;2023-03-01T11:49:37;10.88;;;7.90;;
48911;SDS011;34722;52.108;5.044;2023-03-01T12:09:53;8.45;;;6.40;;
48911;SDS011;34722;52.108;5.044;2023-03-01T12:23:29;7.97;;;6.65;;
48911;SDS011;34722;52.108;5.044;2023-03-01T12:39:07;9.95;;;7.13;;
48911;SDS011;34722;52.108;5.044;2023-03-01T12:44:39;8.02;;;5.82;;
48911;SDS011;34722;52.108;5.044;2023-03-01T12:47:36;9.48;;;6.25;;
48911;SDS011;34722;52.108;5.044;2023-03-01T12:50:23;9.00;;;6.43;;
48911;SDS011;34722;52.108;5.044;2023-03-01T12:52:51;8.50;;;5.60;;
48911;SDS011;34722;52.108;5.044;2023-03-01T12:57:58;8.70;;;6.78;;
48911;SDS011;34722;52.108;5.044;2023-03-01T13:00:57;9.77;;;6.20;;
48911;SDS011;34722;52.108;5.044;2023-03-01T13:03:38;10.75;;;5.88;;
48911;SDS011;34722;52.108;5.044;2023-03-01T13:11:22;9.25;;;6.90;;
48911;SDS011;34722;52.108;5.044;2023-03-01T13:13:49;8.82;;;6.40;;
48911;SDS011;34722;52.108;5.044;2023-03-01T13:16:20;10.65;;;6.50;;
48911;SDS011;34722;52.108;5.044;2023-03-01T13:19:08;11.32;;;6.80;;
48911;SDS011;34722;52.108;5.044;2023-03-01T13:21:41;10.63;;;6.60;;
48911;SDS011;34722;52.108;5.044;2023-03-01T13:32:26;12.43;;;6.53;;
48911;SDS011;34722;52.108;5.044;2023-03-01T13:37:44;10.65;;;6.28;;
48911;SDS011;34722;52.108;5.044;2023-03-01T13:47:58;10.38;;;5.43;;
48911;SDS011;34722;52.108;5.044;2023-03-01T13:50:28;9.48;;;5.18;;
48911;SDS011;34722;52.108;5.044;2023-03-01T13:53:02;8.65;;;5.90;;
48911;SDS011;34722;52.108;5.044;2023-03-01T13:58:24;10.50;;;5.68;;
48911;SDS011;34722;52.108;5.044;2023-03-01T14:00:55;9.10;;;5.30;;
48911;SDS011;34722;52.108;5.044;2023-03-01T14:03:24;6.20;;;4.53;;
48911;SDS011;34722;52.108;5.044;2023-03-01T14:06:03;10.65;;;6.10;;
48911;SDS011;34722;52.108;5.044;2023-03-01T14:08:44;9.48;;;5.00;;
48911;SDS011;34722;52.108;5.044;2023-03-01T14:11:24;9.55;;;5.63;;
48911;SDS011;34722;52.108;5.044;2023-03-01T14:16:28;7.30;;;5.47;;
48911;SDS011;34722;52.108;5.044;2023-03-01T14:21:45;9.63;;;5.90;;
48911;SDS011;34722;52.108;5.044;2023-03-01T14:24:16;9.05;;;5.72;;
48911;SDS011;34722;52.108;5.044;2023-03-01T14:26:45;8.10;;;5.70;;
48911;SDS011;34722;52.108;5.044;2023-03-01T14:29:27;8.38;;;5.43;;
48911;SDS011;34722;52.108;5.044;2023-03-01T14:32:20;7.82;;;5.10;;
48911;SDS011;34722;52.108;5.044;2023-03-01T14:34:49;8.05;;;4.95;;
48911;SDS011;34722;52.108;5.044;2023-03-01T14:37:24;7.38;;;5.55;;
48911;SDS011;34722;52.108;5.044;2023-03-01T14:39:52;8.02;;;5.55;;
48911;SDS011;34722;52.108;5.044;2023-03-01T14:42:19;8.25;;;5.40;;
48911;SDS011;34722;52.108;5.044;2023-03-01T14:44:47;10.00;;;5.65;;
48911;SDS011;34722;52.108;5.044;2023-03-01T14:47:28;12.23;;;5.32;;
48911;SDS011;34722;52.108;5.044;2023-03-01T14:50:01;9.23;;;5.25;;
48911;SDS011;34722;52.108;5.044;2023-03-01T14:52:48;7.05;;;5.65;;
48911;SDS011;34722;52.108;5.044;2023-03-01T19:54:49;19.58;;;10.68;;
48911;SDS011;34722;52.108;5.044;2023-03-01T19:57:15;19.77;;;9.45;;
48911;SDS011;34722;52.108;5.044;2023-03-01T19:59:41;22.52;;;10.43;;
48911;SDS011;34722;52.108;5.044;2023-03-01T20:02:07;20.17;;;10.90;;
48911;SDS011;34722;52.108;5.044;2023-03-01T20:04:33;20.88;;;9.90;;
48911;SDS011;34722;52.108;5.044;2023-03-01T20:06:59;21.55;;;10.90;;
48911;SDS011;34722;52.108;5.044;2023-03-01T20:09:25;19.15;;;10.55;;
48911;SDS011;34722;52.108;5.044;2023-03-01T20:11:50;20.77;;;11.15;;
48911;SDS011;34722;52.108;5.044;2023-03-01T20:14:16;26.27;;;11.07;;
48911;SDS011;34722;52.108;5.044;2023-03-01T20:16:42;18.20;;;9.70;;
48911;SDS011;34722;52.108;5.044;2023-03-01T20:19:08;23.10;;;10.38;;
48911;SDS011;34722;52.108;5.044;2023-03-01T20:21:34;19.35;;;10.88;;
48911;SDS011;34722;52.108;5.044;2023-03-01T20:24:00;27.48;;;11.13;;
48911;SDS011;34722;52.108;5.044;2023-03-01T20:26:25;20.60;;;10.63;;
48911;SDS011;34722;52.108;5.044;2023-03-01T20:28:53;19.92;;;10.80;;
48911;SDS011;34722;52.108;5.044;2023-03-01T20:31:21;25.13;;;12.23;;
48911;SDS011;34722;52.108;5.044;2023-03-01T20:33:53;27.75;;;13.32;;
48911;SDS011;34722;52.108;5.044;2023-03-01T20:36:19;26.73;;;12.52;;
48911;SDS011;34722;52.108;5.044;2023-03-01T20:38:48;22.98;;;12.30;;
48911;SDS011;34722;52.108;5.044;2023-03-01T20:41:19;23.10;;;11.82;;
48911;SDS011;34722;52.108;5.044;2023-03-01T20:43:44;25.48;;;12.63;;
48911;SDS011;34722;52.108;5.044;2023-03-01T20:46:18;27.48;;;13.27;;
48911;SDS011;34722;52.108;5.044;2023-03-01T20:48:44;28.85;;;13.27;;
48911;SDS011;34722;52.108;5.044;2023-03-01T20:51:10;24.60;;;12.70;;
48911;SDS011;34722;52.108;5.044;2023-03-01T20:53:37;26.42;;;13.93;;
48911;SDS011;34722;52.108;5.044;2023-03-01T20:56:03;24.80;;;13.63;;
48911;SDS011;34722;52.108;5.044;2023-03-01T20:58:30;26.88;;;14.02;;
48911;SDS011;34722;52.108;5.044;2023-03-01T21:01:00;27.67;;;14.80;;
48911;SDS011;34722;52.108;5.044;2023-03-01T21:03:26;30.42;;;13.40;;
48911;SDS011;34722;52.108;5.044;2023-03-01T21:05:56;32.65;;;14.63;;
48911;SDS011;34722;52.108;5.044;2023-03-01T21:08:23;25.65;;;13.13;;
48911;SDS011;34722;52.108;5.044;2023-03-01T21:10:49;28.27;;;13.88;;
48911;SDS011;34722;52.108;5.044;2023-03-01T21:13:16;31.63;;;15.15;;
48911;SDS011;34722;52.108;5.044;2023-03-01T21:15:42;30.38;;;14.75;;
48911;SDS011;34722;52.108;5.044;2023-03-01T21:18:15;33.35;;;15.60;;
48911;SDS011;34722;52.108;5.044;2023-03-01T21:20:41;30.13;;;13.55;;
48911;SDS011;34722;52.108;5.044;2023-03-01T21:23:07;34.42;;;14.73;;
48911;SDS011;34722;52.108;5.044;2023-03-01T21:25:32;29.60;;;14.77;;
48911;SDS011;34722;52.108;5.044;2023-03-01T21:27:59;31.98;;;15.05;;
48911;SDS011;34722;52.108;5.044;2023-03-01T21:30:25;30.02;;;13.82;;
48911;SDS011;34722;52.108;5.044;2023-03-01T21:32:50;33.17;;;14.80;;
48911;SDS011;34722;52.108;5.044;2023-03-01T21:35:16;30.88;;;14.57;;
48911;SDS011;34722;52.108;5.044;2023-03-01T21:37:42;35.13;;;15.57;;
48911;SDS011;34722;52.108;5.044;2023-03-01T21:40:07;31.92;;;14.15;;
48911;SDS011;34722;52.108;5.044;2023-03-01T21:42:34;27.13;;;14.45;;
48911;SDS011;34722;52.108;5.044;2023-03-01T21:45:02;32.72;;;15.30;;
48911;SDS011;34722;52.108;5.044;2023-03-01T21:47:28;29.50;;;15.13;;
48911;SDS011;34722;52.108;5.044;2023-03-01T21:49:54;33.42;;;14.55;;
48911;SDS011;34722;52.108;5.044;2023-03-01T21:52:20;46.25;;;17.33;;
48911;SDS011;34722;52.108;5.044;2023-03-01T21:54:48;31.77;;;13.95;;
48911;SDS011;34722;52.108;5.044;2023-03-01T21:57:15;30.55;;;14.20;;
48911;SDS011;34722;52.108;5.044;2023-03-01T21:59:41;30.52;;;14.05;;
48911;SDS011;34722;52.108;5.044;2023-03-01T22:02:09;28.17;;;13.45;;
48911;SDS011;34722;52.108;5.044;2023-03-01T22:04:38;30.38;;;13.95;;
48911;SDS011;34722;52.108;5.044;2023-03-01T22:07:05;30.05;;;14.88;;
48911;SDS011;34722;52.108;5.044;2023-03-01T22:09:30;28.17;;;13.65;;
48911;SDS011;34722;52.108;5.044;2023-03-01T22:11:58;31.63;;;14.30;;
48911;SDS011;34722;52.108;5.044;2023-03-01T22:14:28;29.58;;;13.18;;
48911;SDS011;34722;52.108;5.044;2023-03-01T22:16:55;24.00;;;13.10;;
48911;SDS011;34722;52.108;5.044;2023-03-01T22:19:21;30.40;;;14.52;;
48911;SDS011;34722;52.108;5.044;2023-03-01T22:21:48;25.63;;;13.18;;
48911;SDS011;34722;52.108;5.044;2023-03-01T22:24:16;30.13;;;13.75;;
48911;SDS011;34722;52.108;5.044;2023-03-01T22:26:44;31.77;;;12.50;;
48911;SDS011;34722;52.108;5.044;2023-03-01T22:29:12;26.40;;;12.65;;
48911;SDS011;34722;52.108;5.044;2023-03-01T22:31:39;27.77;;;12.85;;
48911;SDS011;34722;52.108;5.044;2023-03-01T22:34:06;25.80;;;12.57;;
48911;SDS011;34722;52.108;5.044;2023-03-01T22:36:33;31.58;;;13.10;;
48911;SDS011;34722;52.108;5.044;2023-03-01T22:38:59;33.03;;;13.85;;
48911;SDS011;34722;52.108;5.044;2023-03-01T22:41:30;29.50;;;14.13;;
48911;SDS011;34722;52.108;5.044;2023-03-01T22:43:58;33.13;;;15.38;;
48911;SDS011;34722;52.108;5.044;2023-03-01T22:46:23;30.30;;;13.73;;
48911;SDS011;34722;52.108;5.044;2023-03-01T22:48:50;26.10;;;14.00;;
48911;SDS011;34722;52.108;5.044;2023-03-01T22:51:17;32.85;;;14.95;;
48911;SDS011;34722;52.108;5.044;2023-03-01T22:53:44;32.75;;;15.07;;
48911;SDS011;34722;52.108;5.044;2023-03-01T22:56:18;33.55;;;15.40;;
48911;SDS011;34722;52.108;5.044;2023-03-01T22:58:49;36.33;;;17.00;;
48911;SDS011;34722;52.108;5.044;2023-03-01T23:01:16;34.40;;;15.68;;
48911;SDS011;34722;52.108;5.044;2023-03-01T23:03:43;37.67;;;17.42;;
48911;SDS011;34722;52.108;5.044;2023-03-01T23:06:10;38.05;;;17.67;;
48911;SDS011;34722;52.108;5.044;2023-03-01T23:08:36;40.95;;;19.15;;
48911;SDS011;34722;52.108;5.044;2023-03-01T23:11:03;48.67;;;18.95;;
48911;SDS011;34722;52.108;5.044;2023-03-01T23:13:33;40.92;;;19.63;;
48911;SDS011;34722;52.108;5.044;2023-03-01T23:15:59;47.50;;;20.02;;
48911;SDS011;34722;52.108;5.044;2023-03-01T23:18:24;50.13;;;20.42;;
48911;SDS011;34722;52.108;5.044;2023-03-01T23:20:50;52.22;;;22.00;;
48911;SDS011;34722;52.108;5.044;2023-03-01T23:23:16;48.33;;;20.17;;
48911;SDS011;34722;52.108;5.044;2023-03-01T23:25:50;49.53;;;21.27;;
48911;SDS011;34722;52.108;5.044;2023-03-01T23:28:17;58.53;;;25.00;;
48911;SDS011;34722;52.108;5.044;2023-03-01T23:30:46;55.75;;;23.92;;
48911;SDS011;34722;52.108;5.044;2023-03-01T23:33:21;59.50;;;24.70;;
48911;SDS011;34722;52.108;5.044;2023-03-01T23:35:47;66.80;;;27.15;;
48911;SDS011;34722;52.108;5.044;2023-03-01T23:38:12;67.18;;;24.55;;
48911;SDS011;34722;52.108;5.044;2023-03-01T23:40:38;67.88;;;27.75;;
48911;SDS011;34722;52.108;5.044;2023-03-01T23:43:04;71.90;;;29.10;;
48911;SDS011;34722;52.108;5.044;2023-03-01T23:45:29;71.28;;;28.95;;
48911;SDS011;34722;52.108;5.044;2023-03-01T23:47:55;71.35;;;28.80;;
48911;SDS011;34722;52.108;5.044;2023-03-01T23:50:21;73.65;;;29.60;;
48911;SDS011;34722;52.108;5.044;2023-03-01T23:52:47;76.20;;;30.92;;
48911;SDS011;34722;52.108;5.044;2023-03-01T23:55:13;72.05;;;30.45;;
48911;SDS011;34722;52.108;5.044;2023-03-01T23:57:39;87.28;;;33.72;;
